sensor_id;sensor_type;location;lat;lon;timestamp;temperature;humidity
57833;DHT22;43667;53.036;6.740;2023-04-24T00:02:14;11.00;99.90
57833;DHT22;43667;53.036;6.740;2023-04-24T00:04:40;11.00;99.90
57833;DHT22;43667;53.036;6.740;2023-04-24T00:07:06;11.00;99.90
57833;DHT22;43667;53.036;6.740;2023-04-24T00:09:33;11.00;99.90
57833;DHT22;43667;53.036;6.740;2023-04-24T00:11:58;11.00;99.90
57833;DHT22;43667;53.036;6.740;2023-04-24T00:14:25;10.90;99.90
57833;DHT22;43667;53.036;6.740;2023-04-24T00:16:50;10.90;99.90
57833;DHT22;43667;53.036;6.740;2023-04-24T00:19:16;10.80;99.90
57833;DHT22;43667;53.036;6.740;2023-04-24T00:21:42;10.80;99.90
57833;DHT22;43667;53.036;6.740;2023-04-24T00:24:08;10.80;99.90
57833;DHT22;43667;53.036;6.740;2023-04-24T00:26:36;10.80;99.90
57833;DHT22;43667;53.036;6.740;2023-04-24T00:29:02;10.80;99.90
57833;DHT22;43667;53.036;6.740;2023-04-24T00:31:27;10.80;99.90
57833;DHT22;43667;53.036;6.740;2023-04-24T00:33:53;10.80;99.90
57833;DHT22;43667;53.036;6.740;2023-04-24T00:36:19;10.80;99.90
57833;DHT22;43667;53.036;6.740;2023-04-24T00:38:46;10.80;99.90
57833;DHT22;43667;53.036;6.740;2023-04-24T00:41:11;10.80;99.90
57833;DHT22;43667;53.036;6.740;2023-04-24T00:43:37;10.70;99.90
57833;DHT22;43667;53.036;6.740;2023-04-24T00:46:03;10.70;99.90
57833;DHT22;43667;53.036;6.740;2023-04-24T00:48:29;10.80;99.90
57833;DHT22;43667;53.036;6.740;2023-04-24T00:50:56;10.80;99.90
57833;DHT22;43667;53.036;6.740;2023-04-24T00:53:22;10.70;99.90
57833;DHT22;43667;53.036;6.740;2023-04-24T00:55:48;10.70;99.90
57833;DHT22;43667;53.036;6.740;2023-04-24T00:58:14;10.70;99.90
57833;DHT22;43667;53.036;6.740;2023-04-24T01:00:40;10.70;99.90
57833;DHT22;43667;53.036;6.740;2023-04-24T01:03:06;10.70;99.90
57833;DHT22;43667;53.036;6.740;2023-04-24T01:05:33;10.70;99.90
57833;DHT22;43667;53.036;6.740;2023-04-24T01:07:59;10.70;99.90
57833;DHT22;43667;53.036;6.740;2023-04-24T01:10:27;10.60;99.90
57833;DHT22;43667;53.036;6.740;2023-04-24T01:12:55;10.60;99.90
57833;DHT22;43667;53.036;6.740;2023-04-24T01:15:21;10.60;99.90
57833;DHT22;43667;53.036;6.740;2023-04-24T01:17:46;10.60;99.90
57833;DHT22;43667;53.036;6.740;2023-04-24T01:20:12;10.60;99.90
57833;DHT22;43667;53.036;6.740;2023-04-24T01:22:38;10.60;99.90
57833;DHT22;43667;53.036;6.740;2023-04-24T01:25:04;10.50;99.90
57833;DHT22;43667;53.036;6.740;2023-04-24T01:27:31;10.50;99.90
57833;DHT22;43667;53.036;6.740;2023-04-24T01:29:57;10.50;99.90
57833;DHT22;43667;53.036;6.740;2023-04-24T01:32:24;10.40;99.90
57833;DHT22;43667;53.036;6.740;2023-04-24T01:34:50;10.40;99.90
57833;DHT22;43667;53.036;6.740;2023-04-24T01:37:16;10.40;99.90
57833;DHT22;43667;53.036;6.740;2023-04-24T01:39:43;10.40;99.90
57833;DHT22;43667;53.036;6.740;2023-04-24T01:42:09;10.40;99.90
57833;DHT22;43667;53.036;6.740;2023-04-24T01:44:35;10.40;99.90
57833;DHT22;43667;53.036;6.740;2023-04-24T01:47:01;10.40;99.90
57833;DHT22;43667;53.036;6.740;2023-04-24T01:49:27;10.40;99.90
57833;DHT22;43667;53.036;6.740;2023-04-24T01:51:52;10.30;99.90
57833;DHT22;43667;53.036;6.740;2023-04-24T01:54:18;10.30;99.90
57833;DHT22;43667;53.036;6.740;2023-04-24T01:56:44;10.30;99.90
57833;DHT22;43667;53.036;6.740;2023-04-24T01:59:11;10.30;99.90
57833;DHT22;43667;53.036;6.740;2023-04-24T02:01:37;10.30;99.90
57833;DHT22;43667;53.036;6.740;2023-04-24T02:04:04;10.20;99.90
57833;DHT22;43667;53.036;6.740;2023-04-24T02:06:30;10.30;99.90
57833;DHT22;43667;53.036;6.740;2023-04-24T02:08:57;10.30;99.90
57833;DHT22;43667;53.036;6.740;2023-04-24T02:11:23;10.20;99.90
57833;DHT22;43667;53.036;6.740;2023-04-24T02:13:49;10.20;99.90
57833;DHT22;43667;53.036;6.740;2023-04-24T02:16:15;10.20;99.90
57833;DHT22;43667;53.036;6.740;2023-04-24T02:18:41;10.20;99.90
57833;DHT22;43667;53.036;6.740;2023-04-24T02:21:06;10.20;99.90
57833;DHT22;43667;53.036;6.740;2023-04-24T02:23:32;10.20;99.90
57833;DHT22;43667;53.036;6.740;2023-04-24T02:25:58;10.20;99.90
57833;DHT22;43667;53.036;6.740;2023-04-24T02:28:23;10.20;99.90
57833;DHT22;43667;53.036;6.740;2023-04-24T02:30:50;10.20;99.90
57833;DHT22;43667;53.036;6.740;2023-04-24T02:33:15;10.30;99.90
57833;DHT22;43667;53.036;6.740;2023-04-24T02:35:41;10.20;99.90
57833;DHT22;43667;53.036;6.740;2023-04-24T02:38:06;10.20;99.90
57833;DHT22;43667;53.036;6.740;2023-04-24T02:40:32;10.20;99.90
57833;DHT22;43667;53.036;6.740;2023-04-24T02:42:58;10.20;99.90
57833;DHT22;43667;53.036;6.740;2023-04-24T02:45:23;10.10;99.90
57833;DHT22;43667;53.036;6.740;2023-04-24T02:47:49;10.10;99.90
57833;DHT22;43667;53.036;6.740;2023-04-24T02:50:14;10.10;99.90
57833;DHT22;43667;53.036;6.740;2023-04-24T02:52:40;10.00;99.90
57833;DHT22;43667;53.036;6.740;2023-04-24T02:55:06;10.00;99.90
57833;DHT22;43667;53.036;6.740;2023-04-24T02:57:33;10.00;99.90
57833;DHT22;43667;53.036;6.740;2023-04-24T02:59:59;10.00;99.90
57833;DHT22;43667;53.036;6.740;2023-04-24T03:02:25;10.00;99.90
57833;DHT22;43667;53.036;6.740;2023-04-24T03:04:50;9.90;99.90
57833;DHT22;43667;53.036;6.740;2023-04-24T03:07:16;10.00;99.90
57833;DHT22;43667;53.036;6.740;2023-04-24T03:09:42;9.90;99.90
57833;DHT22;43667;53.036;6.740;2023-04-24T03:12:07;9.90;99.90
57833;DHT22;43667;53.036;6.740;2023-04-24T03:14:33;9.90;99.90
57833;DHT22;43667;53.036;6.740;2023-04-24T03:16:58;9.90;99.90
57833;DHT22;43667;53.036;6.740;2023-04-24T03:19:24;9.90;99.90
57833;DHT22;43667;53.036;6.740;2023-04-24T03:21:50;9.80;99.90
57833;DHT22;43667;53.036;6.740;2023-04-24T03:24:15;9.80;99.90
57833;DHT22;43667;53.036;6.740;2023-04-24T03:26:41;9.80;99.90
57833;DHT22;43667;53.036;6.740;2023-04-24T03:29:07;9.80;99.90
57833;DHT22;43667;53.036;6.740;2023-04-24T03:31:32;9.80;99.90
57833;DHT22;43667;53.036;6.740;2023-04-24T03:33:58;9.80;99.90
57833;DHT22;43667;53.036;6.740;2023-04-24T03:36:24;9.80;99.90
57833;DHT22;43667;53.036;6.740;2023-04-24T03:38:49;9.90;99.90
57833;DHT22;43667;53.036;6.740;2023-04-24T03:41:15;9.80;99.90
57833;DHT22;43667;53.036;6.740;2023-04-24T03:43:40;9.80;99.90
57833;DHT22;43667;53.036;6.740;2023-04-24T03:46:06;9.80;99.90
57833;DHT22;43667;53.036;6.740;2023-04-24T03:48:34;9.80;99.90
57833;DHT22;43667;53.036;6.740;2023-04-24T03:51:00;9.80;99.90
57833;DHT22;43667;53.036;6.740;2023-04-24T03:53:26;9.80;99.90
57833;DHT22;43667;53.036;6.740;2023-04-24T03:55:52;9.70;99.90
57833;DHT22;43667;53.036;6.740;2023-04-24T03:58:18;9.80;99.90
57833;DHT22;43667;53.036;6.740;2023-04-24T04:00:44;9.70;99.90
57833;DHT22;43667;53.036;6.740;2023-04-24T04:03:09;9.70;99.90
57833;DHT22;43667;53.036;6.740;2023-04-24T04:05:35;9.70;99.90
57833;DHT22;43667;53.036;6.740;2023-04-24T04:08:01;9.70;99.90
57833;DHT22;43667;53.036;6.740;2023-04-24T04:10:26;9.70;99.90
57833;DHT22;43667;53.036;6.740;2023-04-24T04:12:52;9.70;99.90
57833;DHT22;43667;53.036;6.740;2023-04-24T04:15:17;9.70;99.90
57833;DHT22;43667;53.036;6.740;2023-04-24T04:17:43;9.70;99.90
57833;DHT22;43667;53.036;6.740;2023-04-24T04:20:09;9.60;99.90
57833;DHT22;43667;53.036;6.740;2023-04-24T04:22:36;9.60;99.90
57833;DHT22;43667;53.036;6.740;2023-04-24T04:25:03;9.60;99.90
57833;DHT22;43667;53.036;6.740;2023-04-24T04:27:28;9.60;99.90
57833;DHT22;43667;53.036;6.740;2023-04-24T04:30:00;9.60;99.90
57833;DHT22;43667;53.036;6.740;2023-04-24T04:32:33;9.60;99.90
57833;DHT22;43667;53.036;6.740;2023-04-24T04:34:59;9.70;99.90
57833;DHT22;43667;53.036;6.740;2023-04-24T04:37:37;9.60;99.90
57833;DHT22;43667;53.036;6.740;2023-04-24T04:40:03;9.70;99.90
57833;DHT22;43667;53.036;6.740;2023-04-24T04:42:33;9.60;99.90
57833;DHT22;43667;53.036;6.740;2023-04-24T04:45:00;9.60;99.90
57833;DHT22;43667;53.036;6.740;2023-04-24T04:47:26;9.60;99.90
57833;DHT22;43667;53.036;6.740;2023-04-24T04:49:53;9.60;99.90
57833;DHT22;43667;53.036;6.740;2023-04-24T04:52:19;9.60;99.90
57833;DHT22;43667;53.036;6.740;2023-04-24T04:54:45;9.60;99.90
57833;DHT22;43667;53.036;6.740;2023-04-24T04:57:11;9.70;99.90
57833;DHT22;43667;53.036;6.740;2023-04-24T04:59:37;9.60;99.90
57833;DHT22;43667;53.036;6.740;2023-04-24T05:02:03;9.60;99.90
57833;DHT22;43667;53.036;6.740;2023-04-24T05:04:29;9.60;99.90
57833;DHT22;43667;53.036;6.740;2023-04-24T05:06:55;9.60;99.90
57833;DHT22;43667;53.036;6.740;2023-04-24T05:09:21;9.60;99.90
57833;DHT22;43667;53.036;6.740;2023-04-24T05:11:47;9.60;99.90
57833;DHT22;43667;53.036;6.740;2023-04-24T05:14:12;9.60;99.90
57833;DHT22;43667;53.036;6.740;2023-04-24T05:16:39;9.60;99.90
57833;DHT22;43667;53.036;6.740;2023-04-24T05:19:05;9.60;99.90
57833;DHT22;43667;53.036;6.740;2023-04-24T05:21:31;9.60;99.90
57833;DHT22;43667;53.036;6.740;2023-04-24T05:23:56;9.60;99.90
57833;DHT22;43667;53.036;6.740;2023-04-24T05:26:22;9.60;99.90
57833;DHT22;43667;53.036;6.740;2023-04-24T05:28:48;9.60;99.90
57833;DHT22;43667;53.036;6.740;2023-04-24T05:31:15;9.60;99.90
57833;DHT22;43667;53.036;6.740;2023-04-24T05:33:40;9.60;99.90
57833;DHT22;43667;53.036;6.740;2023-04-24T05:36:06;9.60;99.90
57833;DHT22;43667;53.036;6.740;2023-04-24T05:38:32;9.60;99.90
57833;DHT22;43667;53.036;6.740;2023-04-24T05:40:57;9.60;99.90
57833;DHT22;43667;53.036;6.740;2023-04-24T05:43:23;9.70;99.90
57833;DHT22;43667;53.036;6.740;2023-04-24T05:45:49;9.70;99.90
57833;DHT22;43667;53.036;6.740;2023-04-24T05:48:14;9.70;99.90
57833;DHT22;43667;53.036;6.740;2023-04-24T05:50:41;9.60;99.90
57833;DHT22;43667;53.036;6.740;2023-04-24T05:53:06;9.70;99.90
57833;DHT22;43667;53.036;6.740;2023-04-24T05:55:32;9.70;99.90
57833;DHT22;43667;53.036;6.740;2023-04-24T05:57:58;9.60;99.90
57833;DHT22;43667;53.036;6.740;2023-04-24T06:00:24;9.60;99.90
57833;DHT22;43667;53.036;6.740;2023-04-24T06:02:50;9.60;99.90
57833;DHT22;43667;53.036;6.740;2023-04-24T06:05:17;9.70;99.90
57833;DHT22;43667;53.036;6.740;2023-04-24T06:07:42;9.70;99.90
57833;DHT22;43667;53.036;6.740;2023-04-24T06:10:09;9.70;99.90
57833;DHT22;43667;53.036;6.740;2023-04-24T06:12:34;9.70;99.90
57833;DHT22;43667;53.036;6.740;2023-04-24T06:15:00;9.70;99.90
57833;DHT22;43667;53.036;6.740;2023-04-24T06:17:26;9.70;99.90
57833;DHT22;43667;53.036;6.740;2023-04-24T06:19:51;9.70;99.90
57833;DHT22;43667;53.036;6.740;2023-04-24T06:22:17;9.80;99.90
57833;DHT22;43667;53.036;6.740;2023-04-24T06:24:43;9.80;99.90
57833;DHT22;43667;53.036;6.740;2023-04-24T06:27:08;9.80;99.90
57833;DHT22;43667;53.036;6.740;2023-04-24T06:29:34;9.80;99.90
57833;DHT22;43667;53.036;6.740;2023-04-24T06:31:59;9.80;99.90
57833;DHT22;43667;53.036;6.740;2023-04-24T06:34:25;9.90;99.90
57833;DHT22;43667;53.036;6.740;2023-04-24T06:36:51;9.90;99.90
57833;DHT22;43667;53.036;6.740;2023-04-24T06:39:16;9.90;99.90
57833;DHT22;43667;53.036;6.740;2023-04-24T06:41:42;10.00;99.90
57833;DHT22;43667;53.036;6.740;2023-04-24T06:44:07;10.00;99.90
57833;DHT22;43667;53.036;6.740;2023-04-24T06:46:33;10.00;99.90
57833;DHT22;43667;53.036;6.740;2023-04-24T06:48:59;10.10;99.90
57833;DHT22;43667;53.036;6.740;2023-04-24T06:51:26;10.10;99.90
57833;DHT22;43667;53.036;6.740;2023-04-24T06:53:53;10.10;99.90
57833;DHT22;43667;53.036;6.740;2023-04-24T06:56:19;10.20;99.90
57833;DHT22;43667;53.036;6.740;2023-04-24T06:58:45;10.20;99.90
57833;DHT22;43667;53.036;6.740;2023-04-24T07:01:11;10.20;99.90
57833;DHT22;43667;53.036;6.740;2023-04-24T07:03:37;10.30;99.90
57833;DHT22;43667;53.036;6.740;2023-04-24T07:06:03;10.40;99.90
57833;DHT22;43667;53.036;6.740;2023-04-24T07:08:29;10.40;99.90
57833;DHT22;43667;53.036;6.740;2023-04-24T07:10:59;10.50;99.90
57833;DHT22;43667;53.036;6.740;2023-04-24T07:13:24;10.60;99.90
57833;DHT22;43667;53.036;6.740;2023-04-24T07:15:50;10.60;99.90
57833;DHT22;43667;53.036;6.740;2023-04-24T07:18:18;10.60;99.90
57833;DHT22;43667;53.036;6.740;2023-04-24T07:20:43;10.70;99.90
57833;DHT22;43667;53.036;6.740;2023-04-24T07:23:10;10.70;99.90
57833;DHT22;43667;53.036;6.740;2023-04-24T07:25:35;10.80;99.90
57833;DHT22;43667;53.036;6.740;2023-04-24T07:28:01;10.80;99.90
57833;DHT22;43667;53.036;6.740;2023-04-24T07:30:27;10.80;99.90
57833;DHT22;43667;53.036;6.740;2023-04-24T07:32:57;10.70;99.90
57833;DHT22;43667;53.036;6.740;2023-04-24T07:35:22;10.70;99.90
57833;DHT22;43667;53.036;6.740;2023-04-24T07:37:48;10.70;99.90
57833;DHT22;43667;53.036;6.740;2023-04-24T07:40:14;10.70;99.90
57833;DHT22;43667;53.036;6.740;2023-04-24T07:42:39;10.70;99.90
57833;DHT22;43667;53.036;6.740;2023-04-24T07:45:06;10.70;99.90
57833;DHT22;43667;53.036;6.740;2023-04-24T07:47:32;10.60;99.90
57833;DHT22;43667;53.036;6.740;2023-04-24T07:49:59;10.60;99.90
57833;DHT22;43667;53.036;6.740;2023-04-24T07:52:24;10.60;99.90
57833;DHT22;43667;53.036;6.740;2023-04-24T07:54:50;10.60;99.90
57833;DHT22;43667;53.036;6.740;2023-04-24T07:57:17;10.60;99.90
57833;DHT22;43667;53.036;6.740;2023-04-24T07:59:43;10.60;99.90
57833;DHT22;43667;53.036;6.740;2023-04-24T08:02:09;10.60;99.90
57833;DHT22;43667;53.036;6.740;2023-04-24T08:04:35;10.60;99.90
57833;DHT22;43667;53.036;6.740;2023-04-24T08:07:00;10.60;99.90
57833;DHT22;43667;53.036;6.740;2023-04-24T08:09:26;10.70;99.90
57833;DHT22;43667;53.036;6.740;2023-04-24T08:11:51;10.70;99.90
57833;DHT22;43667;53.036;6.740;2023-04-24T08:14:18;10.70;99.90
57833;DHT22;43667;53.036;6.740;2023-04-24T08:16:44;10.70;99.90
57833;DHT22;43667;53.036;6.740;2023-04-24T08:19:10;10.70;99.90
57833;DHT22;43667;53.036;6.740;2023-04-24T08:21:35;10.60;99.90
57833;DHT22;43667;53.036;6.740;2023-04-24T08:24:01;10.60;99.90
57833;DHT22;43667;53.036;6.740;2023-04-24T08:26:30;10.50;99.90
57833;DHT22;43667;53.036;6.740;2023-04-24T08:28:56;10.50;99.90
57833;DHT22;43667;53.036;6.740;2023-04-24T08:31:21;10.50;99.90
57833;DHT22;43667;53.036;6.740;2023-04-24T08:33:48;10.50;99.90
57833;DHT22;43667;53.036;6.740;2023-04-24T08:36:13;10.40;99.90
57833;DHT22;43667;53.036;6.740;2023-04-24T08:38:39;10.40;99.90
57833;DHT22;43667;53.036;6.740;2023-04-24T08:41:05;10.40;99.90
57833;DHT22;43667;53.036;6.740;2023-04-24T08:43:33;10.40;99.90
57833;DHT22;43667;53.036;6.740;2023-04-24T08:46:03;10.40;99.90
57833;DHT22;43667;53.036;6.740;2023-04-24T08:48:29;10.30;99.90
57833;DHT22;43667;53.036;6.740;2023-04-24T08:50:56;10.30;99.90
57833;DHT22;43667;53.036;6.740;2023-04-24T08:53:22;10.20;99.90
57833;DHT22;43667;53.036;6.740;2023-04-24T08:55:49;10.10;99.90
57833;DHT22;43667;53.036;6.740;2023-04-24T08:58:19;10.10;99.90
57833;DHT22;43667;53.036;6.740;2023-04-24T09:00:44;10.00;99.90
57833;DHT22;43667;53.036;6.740;2023-04-24T09:03:16;9.90;99.90
57833;DHT22;43667;53.036;6.740;2023-04-24T09:05:47;9.90;99.90
57833;DHT22;43667;53.036;6.740;2023-04-24T09:08:14;9.90;99.90
57833;DHT22;43667;53.036;6.740;2023-04-24T09:10:41;9.90;99.90
57833;DHT22;43667;53.036;6.740;2023-04-24T09:13:06;9.80;99.90
57833;DHT22;43667;53.036;6.740;2023-04-24T09:15:34;9.80;99.90
57833;DHT22;43667;53.036;6.740;2023-04-24T09:18:00;9.80;99.90
57833;DHT22;43667;53.036;6.740;2023-04-24T09:20:26;9.80;99.90
57833;DHT22;43667;53.036;6.740;2023-04-24T09:22:54;9.80;99.90
57833;DHT22;43667;53.036;6.740;2023-04-24T09:25:20;9.70;99.90
57833;DHT22;43667;53.036;6.740;2023-04-24T09:27:46;9.70;99.90
57833;DHT22;43667;53.036;6.740;2023-04-24T09:30:12;9.70;99.90
57833;DHT22;43667;53.036;6.740;2023-04-24T09:32:38;9.60;99.90
57833;DHT22;43667;53.036;6.740;2023-04-24T09:35:12;9.60;99.90
57833;DHT22;43667;53.036;6.740;2023-04-24T09:37:42;9.70;99.90
57833;DHT22;43667;53.036;6.740;2023-04-24T09:40:19;9.70;99.90
57833;DHT22;43667;53.036;6.740;2023-04-24T09:42:56;9.70;99.90
57833;DHT22;43667;53.036;6.740;2023-04-24T09:45:37;9.70;99.90
57833;DHT22;43667;53.036;6.740;2023-04-24T09:48:03;9.70;99.90
57833;DHT22;43667;53.036;6.740;2023-04-24T09:50:30;9.70;99.90
57833;DHT22;43667;53.036;6.740;2023-04-24T09:53:02;9.70;99.90
57833;DHT22;43667;53.036;6.740;2023-04-24T09:55:29;9.70;99.90
57833;DHT22;43667;53.036;6.740;2023-04-24T09:57:57;9.80;99.90
57833;DHT22;43667;53.036;6.740;2023-04-24T10:00:28;9.80;99.90
57833;DHT22;43667;53.036;6.740;2023-04-24T10:02:59;9.80;99.90
57833;DHT22;43667;53.036;6.740;2023-04-24T10:05:36;9.80;99.90
57833;DHT22;43667;53.036;6.740;2023-04-24T10:08:04;9.80;99.90
57833;DHT22;43667;53.036;6.740;2023-04-24T10:10:44;9.70;99.90
57833;DHT22;43667;53.036;6.740;2023-04-24T10:13:11;9.70;99.90
57833;DHT22;43667;53.036;6.740;2023-04-24T10:15:38;9.70;99.90
57833;DHT22;43667;53.036;6.740;2023-04-24T10:18:08;9.60;99.90
57833;DHT22;43667;53.036;6.740;2023-04-24T10:20:35;9.60;99.90
57833;DHT22;43667;53.036;6.740;2023-04-24T10:23:01;9.60;99.90
57833;DHT22;43667;53.036;6.740;2023-04-24T10:25:29;9.70;99.90
57833;DHT22;43667;53.036;6.740;2023-04-24T10:27:56;9.70;99.90
57833;DHT22;43667;53.036;6.740;2023-04-24T10:30:27;9.80;99.90
57833;DHT22;43667;53.036;6.740;2023-04-24T10:32:53;9.80;99.90
57833;DHT22;43667;53.036;6.740;2023-04-24T10:35:19;9.90;99.90
57833;DHT22;43667;53.036;6.740;2023-04-24T10:37:56;9.90;99.90
57833;DHT22;43667;53.036;6.740;2023-04-24T10:40:30;9.90;99.90
57833;DHT22;43667;53.036;6.740;2023-04-24T10:42:56;10.00;99.90
57833;DHT22;43667;53.036;6.740;2023-04-24T10:45:23;10.00;99.90
57833;DHT22;43667;53.036;6.740;2023-04-24T10:50:29;10.00;99.90
57833;DHT22;43667;53.036;6.740;2023-04-24T10:53:06;10.00;99.90
57833;DHT22;43667;53.036;6.740;2023-04-24T10:58:09;9.90;99.90
57833;DHT22;43667;53.036;6.740;2023-04-24T11:00:40;9.90;99.90
57833;DHT22;43667;53.036;6.740;2023-04-24T11:03:21;9.90;99.90
57833;DHT22;43667;53.036;6.740;2023-04-24T11:05:58;9.90;99.90
57833;DHT22;43667;53.036;6.740;2023-04-24T11:08:30;9.90;99.90
57833;DHT22;43667;53.036;6.740;2023-04-24T11:11:02;10.00;99.90
57833;DHT22;43667;53.036;6.740;2023-04-24T11:16:27;10.00;99.90
57833;DHT22;43667;53.036;6.740;2023-04-24T11:19:45;10.00;99.90
57833;DHT22;43667;53.036;6.740;2023-04-24T11:22:03;10.00;99.90
57833;DHT22;43667;53.036;6.740;2023-04-24T11:24:30;10.00;99.90
57833;DHT22;43667;53.036;6.740;2023-04-24T11:27:12;10.00;99.90
57833;DHT22;43667;53.036;6.740;2023-04-24T11:35:15;10.10;99.90
57833;DHT22;43667;53.036;6.740;2023-04-24T11:37:52;10.20;99.90
57833;DHT22;43667;53.036;6.740;2023-04-24T11:40:21;10.20;99.90
57833;DHT22;43667;53.036;6.740;2023-04-24T11:42:49;10.20;99.90
57833;DHT22;43667;53.036;6.740;2023-04-24T11:45:23;10.20;99.90
57833;DHT22;43667;53.036;6.740;2023-04-24T11:47:49;10.20;99.90
57833;DHT22;43667;53.036;6.740;2023-04-24T11:50:18;10.30;99.90
57833;DHT22;43667;53.036;6.740;2023-04-24T11:52:46;10.40;99.90
57833;DHT22;43667;53.036;6.740;2023-04-24T11:57:48;10.70;99.90
57833;DHT22;43667;53.036;6.740;2023-04-24T12:00:19;10.80;99.90
57833;DHT22;43667;53.036;6.740;2023-04-24T12:02:46;10.90;99.90
57833;DHT22;43667;53.036;6.740;2023-04-24T12:05:25;10.90;99.90
57833;DHT22;43667;53.036;6.740;2023-04-24T12:07:51;10.90;99.90
57833;DHT22;43667;53.036;6.740;2023-04-24T12:10:24;10.80;99.90
57833;DHT22;43667;53.036;6.740;2023-04-24T12:12:51;10.80;99.90
57833;DHT22;43667;53.036;6.740;2023-04-24T12:15:19;10.70;99.90
57833;DHT22;43667;53.036;6.740;2023-04-24T12:17:45;10.50;99.90
57833;DHT22;43667;53.036;6.740;2023-04-24T12:20:12;10.40;99.90
57833;DHT22;43667;53.036;6.740;2023-04-24T12:22:53;10.20;99.90
57833;DHT22;43667;53.036;6.740;2023-04-24T12:25:38;10.10;99.90
57833;DHT22;43667;53.036;6.740;2023-04-24T12:30:38;9.80;99.90
57833;DHT22;43667;53.036;6.740;2023-04-24T12:33:03;9.80;99.90
57833;DHT22;43667;53.036;6.740;2023-04-24T12:35:31;9.70;99.90
57833;DHT22;43667;53.036;6.740;2023-04-24T12:38:11;9.70;99.90
57833;DHT22;43667;53.036;6.740;2023-04-24T12:40:38;9.70;99.90
57833;DHT22;43667;53.036;6.740;2023-04-24T12:43:17;9.70;99.90
57833;DHT22;43667;53.036;6.740;2023-04-24T12:45:43;9.70;99.90
57833;DHT22;43667;53.036;6.740;2023-04-24T12:48:10;9.70;99.90
57833;DHT22;43667;53.036;6.740;2023-04-24T12:50:36;9.80;99.90
57833;DHT22;43667;53.036;6.740;2023-04-24T12:53:01;9.90;99.90
57833;DHT22;43667;53.036;6.740;2023-04-24T12:55:27;10.00;99.90
57833;DHT22;43667;53.036;6.740;2023-04-24T12:57:52;10.10;99.90
57833;DHT22;43667;53.036;6.740;2023-04-24T13:00:20;10.20;99.90
57833;DHT22;43667;53.036;6.740;2023-04-24T13:02:46;10.30;99.90
57833;DHT22;43667;53.036;6.740;2023-04-24T13:05:12;10.30;99.90
57833;DHT22;43667;53.036;6.740;2023-04-24T13:07:39;10.30;99.90
57833;DHT22;43667;53.036;6.740;2023-04-24T13:10:05;10.30;99.90
57833;DHT22;43667;53.036;6.740;2023-04-24T13:12:31;10.30;99.90
57833;DHT22;43667;53.036;6.740;2023-04-24T13:14:57;10.20;99.90
57833;DHT22;43667;53.036;6.740;2023-04-24T13:17:23;10.20;99.90
57833;DHT22;43667;53.036;6.740;2023-04-24T13:19:50;10.20;99.90
57833;DHT22;43667;53.036;6.740;2023-04-24T13:22:17;10.20;99.90
57833;DHT22;43667;53.036;6.740;2023-04-24T13:24:44;10.30;99.90
57833;DHT22;43667;53.036;6.740;2023-04-24T13:27:13;10.30;99.90
57833;DHT22;43667;53.036;6.740;2023-04-24T13:29:39;10.30;99.90
57833;DHT22;43667;53.036;6.740;2023-04-24T13:32:04;10.30;99.90
57833;DHT22;43667;53.036;6.740;2023-04-24T13:34:30;10.30;99.90
57833;DHT22;43667;53.036;6.740;2023-04-24T13:36:57;10.30;99.90
57833;DHT22;43667;53.036;6.740;2023-04-24T13:39:24;10.20;99.90
57833;DHT22;43667;53.036;6.740;2023-04-24T13:41:50;10.20;99.90
57833;DHT22;43667;53.036;6.740;2023-04-24T13:44:17;10.20;99.90
57833;DHT22;43667;53.036;6.740;2023-04-24T13:46:48;10.10;99.90
57833;DHT22;43667;53.036;6.740;2023-04-24T13:49:15;10.00;99.90
57833;DHT22;43667;53.036;6.740;2023-04-24T13:51:41;10.00;99.90
57833;DHT22;43667;53.036;6.740;2023-04-24T13:54:08;10.00;99.90
57833;DHT22;43667;53.036;6.740;2023-04-24T13:56:33;10.00;99.90
57833;DHT22;43667;53.036;6.740;2023-04-24T13:58:59;10.00;99.90
57833;DHT22;43667;53.036;6.740;2023-04-24T14:01:25;10.00;99.90
57833;DHT22;43667;53.036;6.740;2023-04-24T14:03:52;10.10;99.90
57833;DHT22;43667;53.036;6.740;2023-04-24T14:06:22;10.20;99.90
57833;DHT22;43667;53.036;6.740;2023-04-24T14:08:51;10.20;99.90
57833;DHT22;43667;53.036;6.740;2023-04-24T14:11:18;10.20;99.90
57833;DHT22;43667;53.036;6.740;2023-04-24T14:13:44;10.30;99.90
57833;DHT22;43667;53.036;6.740;2023-04-24T14:16:10;10.20;99.90
57833;DHT22;43667;53.036;6.740;2023-04-24T14:18:36;10.20;99.90
57833;DHT22;43667;53.036;6.740;2023-04-24T14:21:03;10.20;99.90
57833;DHT22;43667;53.036;6.740;2023-04-24T14:23:29;10.20;99.90
57833;DHT22;43667;53.036;6.740;2023-04-24T14:25:55;10.20;99.90
57833;DHT22;43667;53.036;6.740;2023-04-24T14:28:20;10.10;99.90
57833;DHT22;43667;53.036;6.740;2023-04-24T14:30:47;10.00;99.90
57833;DHT22;43667;53.036;6.740;2023-04-24T14:33:13;9.90;99.90
57833;DHT22;43667;53.036;6.740;2023-04-24T14:35:42;9.90;99.90
57833;DHT22;43667;53.036;6.740;2023-04-24T14:38:08;9.90;99.90
57833;DHT22;43667;53.036;6.740;2023-04-24T14:40:34;9.90;99.90
57833;DHT22;43667;53.036;6.740;2023-04-24T14:43:00;9.90;99.90
57833;DHT22;43667;53.036;6.740;2023-04-24T14:45:26;9.80;99.90
57833;DHT22;43667;53.036;6.740;2023-04-24T14:47:52;9.80;99.90
57833;DHT22;43667;53.036;6.740;2023-04-24T14:50:18;9.70;99.90
57833;DHT22;43667;53.036;6.740;2023-04-24T14:52:44;9.70;99.90
57833;DHT22;43667;53.036;6.740;2023-04-24T14:55:09;9.70;99.90
57833;DHT22;43667;53.036;6.740;2023-04-24T14:57:35;9.70;99.90
57833;DHT22;43667;53.036;6.740;2023-04-24T15:00:02;9.70;99.90
57833;DHT22;43667;53.036;6.740;2023-04-24T15:02:29;9.70;99.90
57833;DHT22;43667;53.036;6.740;2023-04-24T15:04:54;9.70;99.90
57833;DHT22;43667;53.036;6.740;2023-04-24T15:07:20;9.70;99.90
57833;DHT22;43667;53.036;6.740;2023-04-24T15:09:46;9.80;99.90
57833;DHT22;43667;53.036;6.740;2023-04-24T15:12:12;9.80;99.90
57833;DHT22;43667;53.036;6.740;2023-04-24T15:14:38;9.70;99.90
57833;DHT22;43667;53.036;6.740;2023-04-24T15:17:05;9.70;99.90
57833;DHT22;43667;53.036;6.740;2023-04-24T15:19:31;9.70;99.90
57833;DHT22;43667;53.036;6.740;2023-04-24T15:21:56;9.80;99.90
57833;DHT22;43667;53.036;6.740;2023-04-24T15:24:22;9.90;99.90
57833;DHT22;43667;53.036;6.740;2023-04-24T15:26:47;9.90;99.90
57833;DHT22;43667;53.036;6.740;2023-04-24T15:29:13;10.00;99.90
57833;DHT22;43667;53.036;6.740;2023-04-24T15:31:38;10.00;99.90
57833;DHT22;43667;53.036;6.740;2023-04-24T15:34:05;10.00;99.90
57833;DHT22;43667;53.036;6.740;2023-04-24T15:36:31;10.00;99.90
57833;DHT22;43667;53.036;6.740;2023-04-24T15:38:57;9.90;99.90
57833;DHT22;43667;53.036;6.740;2023-04-24T15:41:23;9.80;99.90
57833;DHT22;43667;53.036;6.740;2023-04-24T15:43:48;9.70;99.90
57833;DHT22;43667;53.036;6.740;2023-04-24T15:46:14;9.70;99.90
57833;DHT22;43667;53.036;6.740;2023-04-24T15:48:42;9.60;99.90
57833;DHT22;43667;53.036;6.740;2023-04-24T15:51:08;9.60;99.90
57833;DHT22;43667;53.036;6.740;2023-04-24T15:53:33;9.60;99.90
57833;DHT22;43667;53.036;6.740;2023-04-24T15:55:59;9.60;99.90